Time;durP1;ratioP1;P1;durP2;ratioP2;P2;SDS_P1;SDS_P2;PMS_P1;PMS_P2;Temp;Humidity;BMP_temperature;BMP_pressure;BME280_temperature;BME280_humidity;BME280_pressure;Samples;Min_cycle;Max_cycle;Signal;HPM_P1;HPM_P2
2021/12/30 00:01:11;;;;;;;26.33;8.57;;;;;;;;;;5014944;28;20182;-66
2021/12/30 00:03:38;;;;;;;20.43;7.40;;;;;;;;;;5014585;28;20257;-66
2021/12/30 00:06:04;;;;;;;30.67;8.63;;;;;;;;;;5015141;28;20254;-66
2021/12/30 00:08:30;;;;;;;21.07;7.17;;;;;;;;;;5029721;28;20207;-65
2021/12/30 00:10:57;;;;;;;24.27;8.53;;;;;;;;;;5029781;28;20198;-66
2021/12/30 00:13:23;;;;;;;27.10;7.93;;;;;;;;;;5014321;28;20263;-66
2021/12/30 00:15:49;;;;;;;23.77;7.00;;;;;;;;;;5014253;28;20192;-66
2021/12/30 00:18:15;;;;;;;23.53;7.60;;;;;;;;;;5014480;28;20176;-66
2021/12/30 00:20:41;;;;;;;30.10;7.93;;;;;;;;;;5029343;28;20183;-65
2021/12/30 00:23:09;;;;;;;22.83;7.33;;;;;;;;;;5028724;28;20195;-65
2021/12/30 00:25:41;;;;;;;22.77;7.07;;;;;;;;;;5029282;28;20211;-65
2021/12/30 00:28:16;;;;;;;18.83;6.97;;;;;;;;;;5014077;28;20211;-65
2021/12/30 00:30:42;;;;;;;23.33;6.80;;;;;;;;;;5014142;28;20266;-65
2021/12/30 00:33:09;;;;;;;27.27;7.90;;;;;;;;;;5029269;28;20199;-66
2021/12/30 00:35:35;;;;;;;30.00;7.33;;;;;;;;;;5013977;28;20207;-65
2021/12/30 00:38:02;;;;;;;28.40;8.20;;;;;;;;;;5014140;28;20203;-65
2021/12/30 00:40:28;;;;;;;22.30;6.57;;;;;;;;;;5013932;28;20262;-66
2021/12/30 00:42:54;;;;;;;24.53;7.10;;;;;;;;;;5029710;28;20214;-65
2021/12/30 00:45:20;;;;;;;26.67;7.37;;;;;;;;;;5013669;28;20208;-65
2021/12/30 00:47:46;;;;;;;18.80;6.27;;;;;;;;;;5029017;28;20283;-66
2021/12/30 00:50:12;;;;;;;26.73;6.90;;;;;;;;;;5028888;28;20278;-66
2021/12/30 00:52:38;;;;;;;28.43;5.87;;;;;;;;;;5028936;28;20640;-65
2021/12/30 00:55:05;;;;;;;25.47;6.83;;;;;;;;;;5013433;28;20222;-65
2021/12/30 00:57:31;;;;;;;23.90;6.00;;;;;;;;;;5029257;28;20210;-66
2021/12/30 00:59:57;;;;;;;28.30;6.53;;;;;;;;;;5014218;28;20176;-65
2021/12/30 01:02:23;;;;;;;17.10;5.43;;;;;;;;;;5014122;28;20598;-66
2021/12/30 01:04:49;;;;;;;26.00;6.30;;;;;;;;;;5013633;28;20622;-66
2021/12/30 01:07:15;;;;;;;23.57;5.27;;;;;;;;;;5013560;28;20180;-65
2021/12/30 01:09:41;;;;;;;22.73;6.10;;;;;;;;;;5013811;28;20230;-65
2021/12/30 01:12:07;;;;;;;30.13;6.70;;;;;;;;;;5013467;28;20184;-66
2021/12/30 01:14:35;;;;;;;24.90;6.23;;;;;;;;;;5013429;28;20286;-66
2021/12/30 01:17:14;;;;;;;34.17;6.87;;;;;;;;;;5013755;28;20181;-65
2021/12/30 01:22:06;;;;;;;30.97;6.87;;;;;;;;;;5014055;28;20211;-65
2021/12/30 01:24:32;;;;;;;27.97;7.17;;;;;;;;;;5013456;28;20258;-66
2021/12/30 01:26:58;;;;;;;19.87;5.97;;;;;;;;;;5013472;28;20183;-65
2021/12/30 01:29:27;;;;;;;27.47;6.30;;;;;;;;;;5013430;28;20233;-66
2021/12/30 01:31:52;;;;;;;28.07;7.00;;;;;;;;;;5013477;28;20179;-65
2021/12/30 01:34:18;;;;;;;23.60;5.70;;;;;;;;;;5015747;28;20293;-65
2021/12/30 01:36:44;;;;;;;24.07;5.57;;;;;;;;;;5017179;28;20183;-65
2021/12/30 01:39:10;;;;;;;24.77;7.03;;;;;;;;;;5017278;28;20176;-65
2021/12/30 01:41:36;;;;;;;29.63;6.23;;;;;;;;;;5017371;28;20175;-65
2021/12/30 01:44:02;;;;;;;32.37;6.47;;;;;;;;;;5032487;28;20585;-65
2021/12/30 01:46:36;;;;;;;31.70;6.50;;;;;;;;;;5017070;28;20250;-65
2021/12/30 01:49:02;;;;;;;28.57;6.83;;;;;;;;;;5017292;28;20259;-65
2021/12/30 01:51:28;;;;;;;24.00;5.83;;;;;;;;;;5016912;28;20184;-66
2021/12/30 01:53:54;;;;;;;30.27;6.17;;;;;;;;;;5016552;28;20219;-68
2021/12/30 01:56:20;;;;;;;20.93;5.13;;;;;;;;;;5017249;28;20628;-65
2021/12/30 01:58:47;;;;;;;28.03;6.63;;;;;;;;;;5016834;28;20176;-65
2021/12/30 02:01:13;;;;;;;32.10;5.63;;;;;;;;;;5017367;28;20180;-65
2021/12/30 02:03:39;;;;;;;28.27;5.83;;;;;;;;;;5016820;28;20754;-66
2021/12/30 02:06:05;;;;;;;21.10;5.27;;;;;;;;;;5031967;28;20234;-66
2021/12/30 02:08:31;;;;;;;19.30;4.97;;;;;;;;;;5016793;28;20266;-65
2021/12/30 02:10:57;;;;;;;21.40;5.30;;;;;;;;;;5031749;28;20188;-66
2021/12/30 02:13:23;;;;;;;22.43;5.50;;;;;;;;;;5031702;28;20708;-65
2021/12/30 02:15:50;;;;;;;22.80;5.33;;;;;;;;;;5016750;28;20200;-66
2021/12/30 02:18:16;;;;;;;26.80;4.67;;;;;;;;;;5016557;28;20180;-66
2021/12/30 02:20:45;;;;;;;27.50;6.83;;;;;;;;;;5016447;28;20671;-67
2021/12/30 02:23:12;;;;;;;26.90;6.03;;;;;;;;;;5016371;28;20172;-66
2021/12/30 02:25:38;;;;;;;19.60;4.67;;;;;;;;;;5016153;28;20187;-65
2021/12/30 02:28:08;;;;;;;23.97;5.53;;;;;;;;;;5031498;28;20206;-65
2021/12/30 02:30:35;;;;;;;26.17;5.50;;;;;;;;;;5016194;28;20180;-66
2021/12/30 02:33:01;;;;;;;25.87;5.50;;;;;;;;;;5016131;28;20176;-66
2021/12/30 02:35:27;;;;;;;25.67;5.37;;;;;;;;;;5031218;28;20203;-65
2021/12/30 02:37:53;;;;;;;23.70;5.27;;;;;;;;;;5016066;28;20183;-66
2021/12/30 02:40:35;;;;;;;20.13;5.20;;;;;;;;;;5016123;28;20167;-66
2021/12/30 02:43:01;;;;;;;15.43;5.50;;;;;;;;;;5031317;28;20183;-65
2021/12/30 02:45:27;;;;;;;20.30;5.50;;;;;;;;;;5015031;28;20286;-66
2021/12/30 02:47:53;;;;;;;21.63;5.53;;;;;;;;;;5015903;28;20191;-66
2021/12/30 02:50:19;;;;;;;18.50;5.63;;;;;;;;;;5031210;28;20180;-66
2021/12/30 02:52:45;;;;;;;27.80;5.53;;;;;;;;;;5015709;28;20186;-65
2021/12/30 02:55:11;;;;;;;20.50;5.27;;;;;;;;;;5030794;28;20236;-66
2021/12/30 02:57:37;;;;;;;21.73;5.30;;;;;;;;;;5015799;28;20285;-66
2021/12/30 03:00:05;;;;;;;19.30;5.30;;;;;;;;;;5031019;28;20191;-65
2021/12/30 03:02:31;;;;;;;18.80;5.10;;;;;;;;;;5015596;28;20656;-65
2021/12/30 03:04:57;;;;;;;19.60;5.37;;;;;;;;;;5015525;28;20255;-65
2021/12/30 03:07:23;;;;;;;26.27;5.40;;;;;;;;;;5015570;28;20663;-66
2021/12/30 03:09:49;;;;;;;16.40;5.47;;;;;;;;;;5015623;28;20202;-65
2021/12/30 03:12:15;;;;;;;27.48;7.10;;;;;;;;;;5014360;28;20389;-66
2021/12/30 03:14:42;;;;;;;21.80;5.80;;;;;;;;;;5014050;28;20447;-65
2021/12/30 03:17:08;;;;;;;23.05;6.47;;;;;;;;;;5029374;28;20771;-65
2021/12/30 03:19:34;;;;;;;23.48;6.65;;;;;;;;;;5014209;28;20525;-65
2021/12/30 03:22:00;;;;;;;24.20;6.32;;;;;;;;;;5014493;28;20460;-65
2021/12/30 03:24:26;;;;;;;21.23;6.10;;;;;;;;;;5029310;28;20527;-65
2021/12/30 03:26:52;;;;;;;22.83;6.63;;;;;;;;;;5014552;28;20592;-65
2021/12/30 03:29:18;;;;;;;19.90;6.75;;;;;;;;;;5015115;28;20869;-65
2021/12/30 03:31:44;;;;;;;23.63;6.50;;;;;;;;;;5030212;28;20381;-66
2021/12/30 03:34:10;;;;;;;22.58;7.25;;;;;;;;;;5030372;28;20918;-65
2021/12/30 03:36:37;;;;;;;25.55;7.43;;;;;;;;;;5015121;28;20373;-65
2021/12/30 03:39:04;;;;;;;20.10;7.60;;;;;;;;;;5014059;28;20435;-66
2021/12/30 03:41:31;;;;;;;23.30;7.07;;;;;;;;;;5029216;28;20396;-65
2021/12/30 03:43:59;;;;;;;20.55;6.82;;;;;;;;;;5013648;28;20380;-65
2021/12/30 03:46:25;;;;;;;23.02;7.88;;;;;;;;;;5028871;28;20726;-65
2021/12/30 03:48:51;;;;;;;20.92;7.18;;;;;;;;;;5013574;28;20386;-65
2021/12/30 03:51:21;;;;;;;21.98;8.55;;;;;;;;;;5013826;28;20385;-66
2021/12/30 03:53:49;;;;;;;23.10;8.77;;;;;;;;;;5013444;28;20389;-65
2021/12/30 03:56:16;;;;;;;24.45;8.70;;;;;;;;;;5013071;28;20389;-65
2021/12/30 03:58:42;;;;;;;22.98;8.60;;;;;;;;;;5028032;28;20464;-66
2021/12/30 04:01:09;;;;;;;21.88;9.43;;;;;;;;;;5013252;28;20385;-66
2021/12/30 04:03:35;;;;;;;23.05;9.02;;;;;;;;;;5013129;28;20428;-65
2021/12/30 04:06:01;;;;;;;28.55;10.38;;;;;;;;;;5013231;28;20892;-66
2021/12/30 04:08:27;;;;;;;23.85;10.73;;;;;;;;;;5013570;28;20417;-66
2021/12/30 04:10:53;;;;;;;23.33;10.43;;;;;;;;;;5013251;28;20392;-66
2021/12/30 04:13:19;;;;;;;23.48;11.45;;;;;;;;;;5012326;28;20386;-67
2021/12/30 04:15:45;;;;;;;25.73;12.30;;;;;;;;;;5013396;28;20459;-66
2021/12/30 04:20:40;;;;;;;24.70;11.85;;;;;;;;;;5061500;22;20514;-63
2021/12/30 04:23:07;;;;;;;21.00;11.00;;;;;;;;;;5036018;28;20410;-63
2021/12/30 04:25:34;;;;;;;24.88;11.88;;;;;;;;;;5050791;28;20392;-63
2021/12/30 04:28:00;;;;;;;24.98;11.07;;;;;;;;;;5034859;28;20391;-63
2021/12/30 04:30:26;;;;;;;23.10;10.82;;;;;;;;;;5034977;28;20398;-63
2021/12/30 04:32:52;;;;;;;23.15;10.38;;;;;;;;;;5034784;28;20390;-63
2021/12/30 04:35:18;;;;;;;21.40;9.70;;;;;;;;;;5034814;28;20410;-63
2021/12/30 04:37:44;;;;;;;21.00;8.60;;;;;;;;;;5034058;28;20387;-63
2021/12/30 04:40:11;;;;;;;19.60;8.05;;;;;;;;;;5034731;28;20371;-63
2021/12/30 04:42:37;;;;;;;18.23;7.45;;;;;;;;;;5034945;28;20380;-63
2021/12/30 04:45:04;;;;;;;17.57;7.10;;;;;;;;;;5035336;28;20809;-63
2021/12/30 04:47:30;;;;;;;12.40;5.10;;;;;;;;;;5035440;28;20185;-64
2021/12/30 04:49:57;;;;;;;11.30;4.40;;;;;;;;;;5035238;28;20685;-63
2021/12/30 04:52:24;;;;;;;17.02;6.03;;;;;;;;;;5034713;28;20387;-63
2021/12/30 04:54:50;;;;;;;14.10;6.30;;;;;;;;;;5034158;28;20403;-63
2021/12/30 04:57:16;;;;;;;16.52;6.45;;;;;;;;;;5034857;28;20434;-64
2021/12/30 04:59:42;;;;;;;14.27;5.43;;;;;;;;;;5033829;28;20844;-63
2021/12/30 05:02:08;;;;;;;15.85;6.10;;;;;;;;;;5032473;28;20395;-63
2021/12/30 05:04:34;;;;;;;14.05;5.60;;;;;;;;;;5032537;28;20398;-63
2021/12/30 05:07:00;;;;;;;10.97;5.13;;;;;;;;;;5033217;28;20391;-63
2021/12/30 05:09:26;;;;;;;13.48;5.40;;;;;;;;;;5034717;28;20445;-63
2021/12/30 05:11:52;;;;;;;12.30;5.05;;;;;;;;;;5034609;28;20391;-63
2021/12/30 05:14:18;;;;;;;8.27;4.60;;;;;;;;;;5033964;28;20513;-63
2021/12/30 05:16:45;;;;;;;10.48;5.05;;;;;;;;;;5034225;28;20383;-64
2021/12/30 05:19:10;;;;;;;10.77;5.53;;;;;;;;;;5034024;28;20859;-64
2021/12/30 05:21:36;;;;;;;11.57;5.45;;;;;;;;;;5034000;28;20422;-64
2021/12/30 05:24:04;;;;;;;11.38;5.60;;;;;;;;;;5034243;28;20371;-64
2021/12/30 05:26:30;;;;;;;10.00;5.47;;;;;;;;;;5033680;28;20523;-63
2021/12/30 05:28:57;;;;;;;8.77;4.70;;;;;;;;;;5035998;28;20199;-64
2021/12/30 05:31:23;;;;;;;10.37;6.50;;;;;;;;;;5035329;28;20390;-63
2021/12/30 05:33:49;;;;;;;10.43;5.47;;;;;;;;;;5034126;28;20187;-63
2021/12/30 05:36:15;;;;;;;13.57;5.50;;;;;;;;;;5035729;28;20666;-63
2021/12/30 05:38:41;;;;;;;13.50;5.27;;;;;;;;;;5035937;28;20206;-63
2021/12/30 05:41:07;;;;;;;7.17;5.50;;;;;;;;;;5035380;28;20179;-63
2021/12/30 05:43:33;;;;;;;16.10;8.10;;;;;;;;;;5033101;28;20952;-63
2021/12/30 05:45:59;;;;;;;15.65;9.02;;;;;;;;;;5033906;28;20394;-63
2021/12/30 05:48:25;;;;;;;15.13;8.43;;;;;;;;;;5034625;28;20398;-63
2021/12/30 05:50:50;;;;;;;13.27;8.23;;;;;;;;;;5034526;28;20399;-63
2021/12/30 05:53:16;;;;;;;11.82;7.82;;;;;;;;;;5032945;28;20490;-63
2021/12/30 05:55:42;;;;;;;13.10;7.77;;;;;;;;;;5034210;28;20414;-63
2021/12/30 05:58:08;;;;;;;12.00;7.72;;;;;;;;;;5034316;28;20382;-63
2021/12/30 06:00:34;;;;;;;12.88;7.82;;;;;;;;;;5034206;28;20739;-63
2021/12/30 06:03:01;;;;;;;12.13;7.30;;;;;;;;;;5033452;28;20792;-63
2021/12/30 06:05:27;;;;;;;12.23;5.77;;;;;;;;;;5036097;28;20815;-64
2021/12/30 06:07:53;;;;;;;7.73;5.80;;;;;;;;;;5035764;28;20179;-64
2021/12/30 06:10:19;;;;;;;10.40;7.95;;;;;;;;;;5034461;28;20387;-64
2021/12/30 06:12:46;;;;;;;11.70;8.27;;;;;;;;;;5034729;28;20381;-63
2021/12/30 06:15:13;;;;;;;8.70;6.10;;;;;;;;;;5035186;28;20252;-64
2021/12/30 06:17:39;;;;;;;10.18;7.40;;;;;;;;;;5032627;28;20392;-63
2021/12/30 06:20:09;;;;;;;6.57;5.53;;;;;;;;;;5035512;28;20793;-64
2021/12/30 06:22:36;;;;;;;9.47;5.97;;;;;;;;;;5037064;28;20197;-63
2021/12/30 06:25:03;;;;;;;8.60;5.83;;;;;;;;;;5038622;28;20175;-63
2021/12/30 06:27:29;;;;;;;7.27;4.97;;;;;;;;;;5037514;28;20183;-63
2021/12/30 06:29:55;;;;;;;6.37;5.40;;;;;;;;;;5037405;28;20745;-63
2021/12/30 06:32:21;;;;;;;8.07;5.10;;;;;;;;;;5039257;28;20646;-63
2021/12/30 06:34:47;;;;;;;5.43;4.57;;;;;;;;;;5038983;28;20199;-63
2021/12/30 06:37:13;;;;;;;5.30;4.80;;;;;;;;;;5039209;28;20206;-63
2021/12/30 06:39:39;;;;;;;10.70;5.70;;;;;;;;;;5038993;28;20682;-63
2021/12/30 06:42:05;;;;;;;6.20;5.27;;;;;;;;;;5038689;28;20176;-63
2021/12/30 06:44:31;;;;;;;6.53;4.87;;;;;;;;;;5039058;28;20646;-63
2021/12/30 06:47:00;;;;;;;5.37;4.87;;;;;;;;;;5039090;28;20179;-63
2021/12/30 06:49:26;;;;;;;5.80;4.67;;;;;;;;;;5039133;28;20213;-63
2021/12/30 06:51:53;;;;;;;6.27;4.90;;;;;;;;;;5039179;28;20265;-63
2021/12/30 06:54:19;;;;;;;7.47;6.40;;;;;;;;;;5038154;28;20407;-63
2021/12/30 06:56:45;;;;;;;5.23;4.73;;;;;;;;;;5039656;28;20171;-64
2021/12/30 06:59:15;;;;;;;4.80;4.40;;;;;;;;;;5038107;28;20191;-64
2021/12/30 07:01:42;;;;;;;6.07;5.47;;;;;;;;;;5036682;28;20387;-64
2021/12/30 07:04:08;;;;;;;5.60;4.20;;;;;;;;;;5037727;28;20191;-64
2021/12/30 07:06:33;;;;;;;4.95;4.53;;;;;;;;;;5035857;28;20533;-64
2021/12/30 07:08:59;;;;;;;4.07;3.67;;;;;;;;;;5035800;28;20658;-65
2021/12/30 07:11:25;;;;;;;4.68;4.28;;;;;;;;;;5034427;28;20517;-65
2021/12/30 07:13:51;;;;;;;4.40;4.00;;;;;;;;;;5034273;28;20395;-65
2021/12/30 07:16:17;;;;;;;4.73;3.50;;;;;;;;;;5037100;28;20181;-64
2021/12/30 07:18:43;;;;;;;5.50;3.40;;;;;;;;;;5036756;28;20249;-66
2021/12/30 07:21:09;;;;;;;3.87;3.57;;;;;;;;;;5037334;28;20163;-65
2021/12/30 07:23:35;;;;;;;4.20;3.27;;;;;;;;;;5036817;28;20231;-65
2021/12/30 07:26:01;;;;;;;3.60;3.30;;;;;;;;;;5035649;28;20709;-65
2021/12/30 07:28:27;;;;;;;2.97;2.70;;;;;;;;;;5036913;28;20175;-65
2021/12/30 07:30:53;;;;;;;4.00;3.00;;;;;;;;;;5035203;28;20186;-65
2021/12/30 07:33:19;;;;;;;3.50;3.20;;;;;;;;;;5037558;28;20229;-65
2021/12/30 07:35:45;;;;;;;3.87;3.30;;;;;;;;;;5035214;28;20245;-65
2021/12/30 07:38:11;;;;;;;3.60;3.30;;;;;;;;;;5035310;28;20179;-65
2021/12/30 07:40:37;;;;;;;9.70;8.07;;;;;;;;;;5035676;28;20191;-65
2021/12/30 07:43:03;;;;;;;10.93;8.43;;;;;;;;;;5036824;28;20175;-64
2021/12/30 07:45:29;;;;;;;8.70;6.13;;;;;;;;;;5036355;28;20176;-65
2021/12/30 07:47:55;;;;;;;20.27;14.07;;;;;;;;;;5036122;28;20325;-64
2021/12/30 07:50:22;;;;;;;5.97;4.83;;;;;;;;;;5035068;28;20310;-64
2021/12/30 07:52:48;;;;;;;4.27;3.37;;;;;;;;;;5036006;28;20201;-64
2021/12/30 07:55:15;;;;;;;3.70;3.40;;;;;;;;;;5036170;28;20202;-64
2021/12/30 07:57:41;;;;;;;5.10;3.80;;;;;;;;;;5036662;28;20175;-64
2021/12/30 08:00:09;;;;;;;3.93;3.43;;;;;;;;;;5036309;28;20686;-64
2021/12/30 08:02:35;;;;;;;3.77;3.47;;;;;;;;;;5035758;28;20171;-64
2021/12/30 08:05:01;;;;;;;3.93;3.60;;;;;;;;;;5036153;28;20191;-64
2021/12/30 08:07:27;;;;;;;3.73;3.33;;;;;;;;;;5035774;28;20210;-64
2021/12/30 08:09:54;;;;;;;4.73;3.03;;;;;;;;;;5035653;28;20199;-64
2021/12/30 08:12:20;;;;;;;3.73;3.40;;;;;;;;;;5036138;28;20225;-64
2021/12/30 08:14:46;;;;;;;6.90;3.40;;;;;;;;;;5035670;28;20199;-64
2021/12/30 08:17:12;;;;;;;4.40;4.00;;;;;;;;;;5035706;28;20233;-64
2021/12/30 08:19:38;;;;;;;3.90;3.60;;;;;;;;;;5034216;28;20253;-64
2021/12/30 08:22:04;;;;;;;6.00;4.23;;;;;;;;;;5035337;28;20632;-63
2021/12/30 08:24:30;;;;;;;5.97;5.27;;;;;;;;;;5035738;28;20184;-64
2021/12/30 08:26:59;;;;;;;9.90;8.93;;;;;;;;;;5034331;28;20237;-64
2021/12/30 08:29:25;;;;;;;4.97;4.47;;;;;;;;;;5035633;28;20694;-64
2021/12/30 08:31:51;;;;;;;6.43;5.83;;;;;;;;;;5035334;28;20583;-64
2021/12/30 08:34:17;;;;;;;3.93;3.63;;;;;;;;;;5033412;28;20210;-64
2021/12/30 08:36:43;;;;;;;4.70;3.80;;;;;;;;;;5034821;28;20244;-66
2021/12/30 08:39:08;;;;;;;4.13;3.77;;;;;;;;;;5035111;28;20218;-64
2021/12/30 08:41:34;;;;;;;4.80;4.23;;;;;;;;;;5033063;28;20643;-64
2021/12/30 08:44:00;;;;;;;5.80;4.87;;;;;;;;;;5032900;28;20662;-64
2021/12/30 08:46:26;;;;;;;4.57;3.90;;;;;;;;;;5033370;28;20179;-64
2021/12/30 08:48:52;;;;;;;4.77;4.20;;;;;;;;;;5033276;28;20197;-64
2021/12/30 08:51:18;;;;;;;3.93;3.53;;;;;;;;;;5033997;28;20187;-64
2021/12/30 08:53:44;;;;;;;4.20;3.80;;;;;;;;;;5034833;28;20178;-64
2021/12/30 08:56:14;;;;;;;3.67;3.33;;;;;;;;;;5034467;28;20268;-64
2021/12/30 08:58:40;;;;;;;5.70;4.33;;;;;;;;;;5036519;28;20202;-64
2021/12/30 09:01:06;;;;;;;5.10;4.30;;;;;;;;;;5035658;28;20188;-64
2021/12/30 09:03:32;;;;;;;4.53;3.97;;;;;;;;;;5035826;28;20269;-63
2021/12/30 09:05:58;;;;;;;6.67;4.90;;;;;;;;;;5036424;28;20203;-64
2021/12/30 09:08:24;;;;;;;4.40;3.97;;;;;;;;;;5035663;28;20244;-63
2021/12/30 09:10:50;;;;;;;4.10;3.70;;;;;;;;;;5034462;28;20175;-64
2021/12/30 09:13:18;;;;;;;4.00;3.60;;;;;;;;;;5031806;28;20185;-64
2021/12/30 09:15:45;;;;;;;4.30;3.60;;;;;;;;;;5033213;28;20198;-64
2021/12/30 09:18:11;;;;;;;3.80;3.40;;;;;;;;;;5033020;28;20171;-64
2021/12/30 09:20:38;;;;;;;3.57;3.27;;;;;;;;;;5032951;28;20246;-65
2021/12/30 09:23:04;;;;;;;4.87;3.57;;;;;;;;;;5033148;28;20526;-64
2021/12/30 09:25:30;;;;;;;4.17;3.27;;;;;;;;;;5031840;28;20211;-64
2021/12/30 09:27:57;;;;;;;5.00;3.40;;;;;;;;;;5031756;28;20237;-64
2021/12/30 09:30:24;;;;;;;3.63;3.20;;;;;;;;;;5031633;28;20558;-63
2021/12/30 09:32:51;;;;;;;4.17;3.47;;;;;;;;;;5033377;28;20203;-64
2021/12/30 09:35:17;;;;;;;3.70;3.00;;;;;;;;;;5031602;28;20206;-64
2021/12/30 09:37:44;;;;;;;3.73;3.10;;;;;;;;;;5032989;28;20182;-64
2021/12/30 09:40:13;;;;;;;4.40;3.60;;;;;;;;;;5032837;28;20731;-63
2021/12/30 09:42:40;;;;;;;5.63;3.00;;;;;;;;;;5031586;28;20277;-64
2021/12/30 09:45:07;;;;;;;4.20;3.13;;;;;;;;;;5031791;28;20183;-63
2021/12/30 09:47:33;;;;;;;3.40;3.10;;;;;;;;;;5033198;28;20186;-64
2021/12/30 09:49:59;;;;;;;4.77;3.20;;;;;;;;;;5031580;28;20203;-64
2021/12/30 09:52:26;;;;;;;5.57;3.03;;;;;;;;;;5031577;28;20175;-63
2021/12/30 09:54:52;;;;;;;3.87;3.10;;;;;;;;;;5034317;28;20226;-64
2021/12/30 09:57:18;;;;;;;5.07;3.23;;;;;;;;;;5036579;28;20194;-64
2021/12/30 09:59:44;;;;;;;4.37;3.53;;;;;;;;;;5035095;28;20199;-64
2021/12/30 10:02:10;;;;;;;4.70;3.13;;;;;;;;;;5036924;28;20657;-64
2021/12/30 10:04:36;;;;;;;3.40;3.10;;;;;;;;;;5036580;28;20544;-64
2021/12/30 10:07:03;;;;;;;3.07;2.57;;;;;;;;;;5036645;28;20179;-64
2021/12/30 10:09:39;;;;;;;2.97;2.53;;;;;;;;;;5036338;28;20199;-64
2021/12/30 10:12:05;;;;;;;3.67;2.17;;;;;;;;;;5035296;28;20187;-64
2021/12/30 10:14:33;;;;;;;3.53;2.77;;;;;;;;;;5036191;28;20214;-64
2021/12/30 10:17:16;;;;;;;2.30;2.10;;;;;;;;;;5034927;28;20179;-64
2021/12/30 10:19:42;;;;;;;3.80;2.80;;;;;;;;;;5034815;28;20223;-64
2021/12/30 10:22:09;;;;;;;3.30;2.27;;;;;;;;;;5036102;28;20190;-64
2021/12/30 10:24:35;;;;;;;2.37;2.17;;;;;;;;;;5034859;28;20186;-64
2021/12/30 10:27:01;;;;;;;2.30;2.10;;;;;;;;;;5034783;28;20682;-64
2021/12/30 10:29:28;;;;;;;7.20;3.37;;;;;;;;;;5036441;28;20202;-63
2021/12/30 10:31:54;;;;;;;4.87;3.20;;;;;;;;;;5034700;28;20179;-64
2021/12/30 10:34:20;;;;;;;9.00;5.37;;;;;;;;;;5034582;28;20578;-64
2021/12/30 10:36:47;;;;;;;7.17;5.33;;;;;;;;;;5036395;28;20229;-67
2021/12/30 10:39:26;;;;;;;6.20;4.17;;;;;;;;;;5035865;28;20203;-64
2021/12/30 10:41:53;;;;;;;5.90;4.80;;;;;;;;;;5035997;28;20174;-65
2021/12/30 10:44:20;;;;;;;7.40;3.73;;;;;;;;;;5034826;28;20265;-64
2021/12/30 10:46:46;;;;;;;3.40;2.40;;;;;;;;;;5034491;28;20192;-64
2021/12/30 10:49:22;;;;;;;4.87;3.83;;;;;;;;;;5035395;28;20213;-64
2021/12/30 10:51:52;;;;;;;5.20;3.47;;;;;;;;;;5034301;28;20248;-64
2021/12/30 10:54:19;;;;;;;6.03;4.00;;;;;;;;;;5034118;28;20659;-64
2021/12/30 10:56:50;;;;;;;7.67;3.73;;;;;;;;;;5035440;28;20179;-64
2021/12/30 10:59:21;;;;;;;4.43;3.63;;;;;;;;;;5035302;28;20195;-64
2021/12/30 11:01:47;;;;;;;4.33;2.60;;;;;;;;;;5035260;28;20235;-64
2021/12/30 11:04:13;;;;;;;4.60;2.33;;;;;;;;;;5035349;28;20182;-64
2021/12/30 11:06:40;;;;;;;5.97;3.03;;;;;;;;;;5034611;28;20171;-65
2021/12/30 11:09:06;;;;;;;3.30;2.20;;;;;;;;;;5035203;28;20242;-64
2021/12/30 11:11:32;;;;;;;4.20;1.90;;;;;;;;;;5035207;28;20186;-64
2021/12/30 11:14:03;;;;;;;4.00;2.07;;;;;;;;;;5035042;28;20183;-64
2021/12/30 11:16:29;;;;;;;4.57;2.20;;;;;;;;;;5035032;28;20265;-64
2021/12/30 11:18:56;;;;;;;3.20;2.37;;;;;;;;;;5033678;28;20210;-64
2021/12/30 11:21:38;;;;;;;3.00;2.33;;;;;;;;;;5033772;28;20175;-64
2021/12/30 11:24:05;;;;;;;2.53;2.30;;;;;;;;;;5036744;28;20656;-64
2021/12/30 11:26:32;;;;;;;5.93;2.60;;;;;;;;;;5034924;28;20182;-64
2021/12/30 11:28:58;;;;;;;4.23;2.40;;;;;;;;;;5035354;28;20313;-64
2021/12/30 11:31:24;;;;;;;4.90;3.20;;;;;;;;;;5034991;28;20179;-64
2021/12/30 11:33:50;;;;;;;5.97;2.80;;;;;;;;;;5034794;28;20182;-64
2021/12/30 11:36:19;;;;;;;5.50;2.73;;;;;;;;;;5034672;28;20226;-64
2021/12/30 11:38:45;;;;;;;5.13;2.90;;;;;;;;;;5034821;28;20541;-64
2021/12/30 11:41:22;;;;;;;4.10;2.70;;;;;;;;;;5034456;28;20179;-64
2021/12/30 11:43:49;;;;;;;7.50;2.90;;;;;;;;;;5034486;28;20266;-64
2021/12/30 11:46:33;;;;;;;4.33;3.07;;;;;;;;;;5035082;28;20267;-64
2021/12/30 11:48:59;;;;;;;5.93;2.87;;;;;;;;;;5034503;28;20647;-63
2021/12/30 11:51:39;;;;;;;4.97;2.40;;;;;;;;;;5034546;28;20186;-64
2021/12/30 11:54:32;;;;;;;5.50;2.87;;;;;;;;;;5034598;28;20207;-64
2021/12/30 11:57:17;;;;;;;6.60;2.87;;;;;;;;;;5028835;28;20289;-64
2021/12/30 11:59:43;;;;;;;5.37;2.77;;;;;;;;;;5032947;28;20242;-64
2021/12/30 12:02:32;;;;;;;5.10;2.67;;;;;;;;;;5034288;28;20179;-64
2021/12/30 12:04:58;;;;;;;7.20;3.17;;;;;;;;;;5021178;28;20213;-64
2021/12/30 12:07:24;;;;;;;8.13;3.27;;;;;;;;;;5034094;28;20175;-64
2021/12/30 12:09:50;;;;;;;5.50;2.53;;;;;;;;;;5032816;28;20211;-64
2021/12/30 12:12:32;;;;;;;7.30;3.73;;;;;;;;;;5034006;28;20262;-63
2021/12/30 12:14:59;;;;;;;5.40;2.70;;;;;;;;;;5032631;28;20210;-62
2021/12/30 12:17:45;;;;;;;6.77;2.90;;;;;;;;;;5032450;28;20588;-63
2021/12/30 12:20:13;;;;;;;4.53;2.70;;;;;;;;;;5032331;28;20225;-63
2021/12/30 12:22:39;;;;;;;5.57;2.63;;;;;;;;;;5033767;28;20682;-63
2021/12/30 12:25:09;;;;;;;6.37;3.10;;;;;;;;;;5032525;28;20179;-63
2021/12/30 12:27:37;;;;;;;5.10;3.23;;;;;;;;;;5032509;28;20183;-63
2021/12/30 12:30:04;;;;;;;6.33;2.80;;;;;;;;;;5033529;28;20233;-63
2021/12/30 12:32:30;;;;;;;5.00;3.00;;;;;;;;;;5033517;28;20183;-63
2021/12/30 12:34:58;;;;;;;4.57;2.60;;;;;;;;;;5033498;28;20211;-63
2021/12/30 12:37:27;;;;;;;4.83;2.70;;;;;;;;;;5033684;28;20182;-63
2021/12/30 12:40:00;;;;;;;3.60;2.70;;;;;;;;;;5033845;28;20253;-64
2021/12/30 12:42:44;;;;;;;5.00;2.40;;;;;;;;;;5033563;28;20167;-63
2021/12/30 12:45:18;;;;;;;7.90;2.50;;;;;;;;;;5033529;28;20218;-63
2021/12/30 12:47:44;;;;;;;6.00;2.63;;;;;;;;;;5033573;28;20666;-63
2021/12/30 12:50:11;;;;;;;4.67;2.57;;;;;;;;;;5033904;28;20199;-64
2021/12/30 12:52:48;;;;;;;4.13;2.80;;;;;;;;;;5034135;28;20175;-63
2021/12/30 12:55:23;;;;;;;6.07;3.00;;;;;;;;;;5033833;28;20202;-63
2021/12/30 12:57:49;;;;;;;6.40;3.07;;;;;;;;;;5033673;28;20174;-63
2021/12/30 13:00:15;;;;;;;7.27;2.50;;;;;;;;;;5034960;28;20191;-64
2021/12/30 13:02:47;;;;;;;6.33;3.30;;;;;;;;;;5033578;28;20175;-63
2021/12/30 13:05:15;;;;;;;6.53;3.17;;;;;;;;;;5033520;28;20179;-64
2021/12/30 13:07:41;;;;;;;5.27;3.30;;;;;;;;;;5033466;28;20262;-64
2021/12/30 13:10:09;;;;;;;6.23;3.87;;;;;;;;;;5033760;28;20278;-63
2021/12/30 13:12:35;;;;;;;3.83;2.30;;;;;;;;;;5033411;28;20182;-63
2021/12/30 13:17:43;;;;;;;6.83;3.93;;;;;;;;;;5032429;28;20649;-66
2021/12/30 13:20:10;;;;;;;4.53;3.03;;;;;;;;;;5033305;28;20178;-66
2021/12/30 13:22:37;;;;;;;6.10;3.23;;;;;;;;;;5033002;28;20186;-66
2021/12/30 13:25:04;;;;;;;26.83;15.73;;;;;;;;;;5048420;28;20608;-66
2021/12/30 13:27:31;;;;;;;5.50;3.20;;;;;;;;;;5033021;28;20199;-66
2021/12/30 13:30:00;;;;;;;5.43;4.30;;;;;;;;;;5035011;28;20187;-66
2021/12/30 13:32:34;;;;;;;8.70;5.10;;;;;;;;;;5036949;28;20225;-66
2021/12/30 13:35:05;;;;;;;5.87;4.30;;;;;;;;;;5037142;28;20191;-66
2021/12/30 13:37:38;;;;;;;4.70;3.23;;;;;;;;;;5036973;28;20261;-66
2021/12/30 13:40:13;;;;;;;17.83;11.90;;;;;;;;;;5036869;28;20167;-66
2021/12/30 13:42:45;;;;;;;19.07;12.70;;;;;;;;;;5036853;28;20191;-66
2021/12/30 13:45:11;;;;;;;3.70;2.73;;;;;;;;;;5036981;28;20174;-66
2021/12/30 13:47:39;;;;;;;4.57;3.43;;;;;;;;;;5035465;28;20187;-66
2021/12/30 13:50:07;;;;;;;4.93;3.23;;;;;;;;;;5036755;28;20179;-66
2021/12/30 13:52:35;;;;;;;8.90;4.17;;;;;;;;;;5036633;28;20190;-66
2021/12/30 13:55:07;;;;;;;8.37;5.23;;;;;;;;;;5036442;28;20221;-66
2021/12/30 13:57:33;;;;;;;5.60;4.17;;;;;;;;;;5036429;28;20172;-67
2021/12/30 14:00:00;;;;;;;6.10;4.50;;;;;;;;;;5036549;28;20222;-66
2021/12/30 14:02:25;;;;;;;5.57;3.73;;;;;;;;;;5035075;28;20357;-66
2021/12/30 14:04:51;;;;;;;3.13;2.60;;;;;;;;;;5036371;28;20263;-66
2021/12/30 14:07:18;;;;;;;4.17;2.57;;;;;;;;;;5036345;28;20202;-65
2021/12/30 14:09:54;;;;;;;8.23;3.30;;;;;;;;;;5036303;28;20254;-65
2021/12/30 14:12:20;;;;;;;7.13;3.10;;;;;;;;;;5034924;28;20647;-66
2021/12/30 14:14:46;;;;;;;4.10;2.50;;;;;;;;;;5036174;28;20602;-66
2021/12/30 14:17:16;;;;;;;4.30;2.80;;;;;;;;;;5035984;28;20214;-66
2021/12/30 14:19:49;;;;;;;3.60;2.70;;;;;;;;;;5034897;28;20222;-66
2021/12/30 14:22:15;;;;;;;3.57;2.70;;;;;;;;;;5036238;28;20167;-66
2021/12/30 14:24:41;;;;;;;5.17;3.47;;;;;;;;;;5036031;28;20171;-66
2021/12/30 14:27:13;;;;;;;5.47;3.30;;;;;;;;;;5035922;28;20191;-66
2021/12/30 14:29:39;;;;;;;5.73;2.40;;;;;;;;;;5034465;28;20187;-66
2021/12/30 14:32:06;;;;;;;4.60;2.50;;;;;;;;;;5034541;28;20183;-66
2021/12/30 14:34:48;;;;;;;6.43;3.20;;;;;;;;;;5035764;28;20206;-66
2021/12/30 14:37:16;;;;;;;4.43;2.30;;;;;;;;;;5034426;28;20199;-66
2021/12/30 14:39:45;;;;;;;4.17;2.50;;;;;;;;;;5034534;28;20178;-66
2021/12/30 14:42:19;;;;;;;5.53;2.90;;;;;;;;;;5034649;28;20529;-66
2021/12/30 14:44:55;;;;;;;4.83;2.53;;;;;;;;;;5036250;28;20250;-66